Time;durP1;ratioP1;P1;durP2;ratioP2;P2;SDS_P1;SDS_P2;PMS_P1;PMS_P2;Temp;Humidity;BMP_temperature;BMP_pressure;BME280_temperature;BME280_humidity;BME280_pressure;Samples;Min_cycle;Max_cycle;Signal;HPM_P1;HPM_P2
2020/12/07 00:00:48;;;;;;;71.30;14.20;;;2.50;99.90;;;;;;5056042;28;20235;-79
2020/12/07 00:03:14;;;;;;;73.95;14.73;;;2.50;99.90;;;;;;5056242;28;20229;-79
2020/12/07 00:05:41;;;;;;;70.55;13.45;;;2.50;99.90;;;;;;5056318;28;20206;-79
2020/12/07 00:08:07;;;;;;;74.25;14.10;;;2.40;99.90;;;;;;5056287;28;20212;-79
2020/12/07 00:10:34;;;;;;;72.15;13.30;;;2.40;99.90;;;;;;5056063;28;20395;-79
2020/12/07 00:13:02;;;;;;;72.88;13.43;;;2.40;99.90;;;;;;5056390;28;20209;-79
2020/12/07 00:15:28;;;;;;;71.82;13.55;;;2.30;99.90;;;;;;5056356;28;20261;-79
2020/12/07 00:17:55;;;;;;;71.43;13.85;;;2.30;99.90;;;;;;5055493;28;20301;-79
2020/12/07 00:20:21;;;;;;;75.15;15.88;;;2.30;99.90;;;;;;5056039;28;20226;-79
2020/12/07 00:22:48;;;;;;;72.70;14.07;;;2.30;99.90;;;;;;5055021;28;20489;-79
2020/12/07 00:25:14;;;;;;;78.43;16.13;;;2.30;99.90;;;;;;5055501;28;20231;-79
2020/12/07 00:27:41;;;;;;;71.63;13.95;;;2.30;99.90;;;;;;5055291;28;20240;-79
2020/12/07 00:30:07;;;;;;;76.20;14.35;;;2.30;99.90;;;;;;5055101;28;20236;-79
2020/12/07 00:32:34;;;;;;;77.03;16.27;;;2.30;99.90;;;;;;5055220;28;20216;-79
2020/12/07 00:35:01;;;;;;;75.65;16.75;;;2.40;99.90;;;;;;5054590;28;20229;-79
2020/12/07 00:37:27;;;;;;;76.05;14.18;;;2.40;99.90;;;;;;5055560;28;20201;-79
2020/12/07 00:39:53;;;;;;;76.03;13.57;;;2.40;99.90;;;;;;5054859;28;20708;-79
2020/12/07 00:42:20;;;;;;;72.05;13.93;;;2.40;99.90;;;;;;5055212;28;20201;-79
2020/12/07 00:44:47;;;;;;;70.60;13.88;;;2.40;99.90;;;;;;5054720;28;20204;-79
2020/12/07 00:47:13;;;;;;;77.47;15.40;;;2.40;99.90;;;;;;5055515;28;20674;-79
2020/12/07 00:49:40;;;;;;;74.97;14.52;;;2.40;99.90;;;;;;5056474;28;20205;-79
2020/12/07 00:52:07;;;;;;;73.07;14.18;;;2.40;99.90;;;;;;5092159;22;20255;-71
2020/12/07 00:54:33;;;;;;;71.88;14.05;;;2.40;99.90;;;;;;5071523;28;20315;-71
2020/12/07 00:57:00;;;;;;;71.65;14.68;;;2.40;99.90;;;;;;5071849;28;20204;-71
2020/12/07 00:59:28;;;;;;;73.18;14.70;;;2.40;99.90;;;;;;5071806;28;20208;-72
2020/12/07 01:01:56;;;;;;;74.95;14.55;;;2.40;99.90;;;;;;5071586;28;20707;-71
2020/12/07 01:04:23;;;;;;;74.40;13.38;;;2.40;99.90;;;;;;5071742;28;20723;-71
2020/12/07 01:06:49;;;;;;;73.88;13.43;;;2.40;99.90;;;;;;5074125;28;20211;-71
2020/12/07 01:09:16;;;;;;;72.15;13.73;;;2.50;99.90;;;;;;5076018;28;20215;-71
2020/12/07 01:11:43;;;;;;;71.85;12.80;;;2.50;99.90;;;;;;5075711;28;20315;-71
2020/12/07 01:14:10;;;;;;;70.30;12.27;;;2.50;99.90;;;;;;5076137;28;20836;-71
2020/12/07 01:16:37;;;;;;;67.43;11.80;;;2.50;99.90;;;;;;5076896;28;20394;-72
2020/12/07 01:19:05;;;;;;;71.07;12.32;;;2.50;99.90;;;;;;5075815;28;20230;-71
2020/12/07 01:21:32;;;;;;;71.35;13.60;;;2.50;99.90;;;;;;5075505;28;20236;-71
2020/12/07 01:23:59;;;;;;;66.55;11.00;;;2.50;99.90;;;;;;5074957;28;20208;-71
2020/12/07 01:26:25;;;;;;;67.88;12.00;;;2.50;99.90;;;;;;5075387;28;20247;-72
2020/12/07 01:28:52;;;;;;;70.40;12.55;;;2.60;99.90;;;;;;5075465;28;20684;-71
2020/12/07 01:31:18;;;;;;;67.32;11.05;;;2.60;99.90;;;;;;5075267;28;20225;-71
2020/12/07 01:33:45;;;;;;;70.22;11.35;;;2.60;99.90;;;;;;5074993;28;20700;-71
2020/12/07 01:36:13;;;;;;;69.07;11.50;;;2.60;99.90;;;;;;5075290;28;20216;-71
2020/12/07 01:38:39;;;;;;;67.60;10.20;;;2.60;99.90;;;;;;5075420;28;20575;-72
2020/12/07 01:41:05;;;;;;;66.43;9.93;;;2.60;99.90;;;;;;5075004;28;20712;-72
2020/12/07 01:43:32;;;;;;;66.35;10.00;;;2.60;99.90;;;;;;5075231;28;20292;-72
2020/12/07 01:45:58;;;;;;;66.15;11.15;;;2.60;99.90;;;;;;5075038;28;20205;-71
2020/12/07 01:48:25;;;;;;;68.53;10.98;;;2.50;99.90;;;;;;5075071;28;20308;-72
2020/12/07 01:50:53;;;;;;;65.55;10.10;;;2.50;99.90;;;;;;5075340;28;20239;-72
2020/12/07 01:53:21;;;;;;;64.45;10.07;;;2.50;99.90;;;;;;5074494;28;20229;-71
2020/12/07 01:55:49;;;;;;;65.63;9.65;;;2.50;99.90;;;;;;5074829;28;20695;-71
2020/12/07 01:58:16;;;;;;;67.82;9.95;;;2.50;99.90;;;;;;5075114;28;20303;-71
2020/12/07 02:00:42;;;;;;;92.38;21.65;;;2.60;99.90;;;;;;5074734;28;20262;-71
2020/12/07 02:03:09;;;;;;;83.60;19.27;;;2.60;99.90;;;;;;5074823;28;20216;-71
2020/12/07 02:05:38;;;;;;;73.75;13.82;;;2.60;99.90;;;;;;5075098;28;20239;-71
2020/12/07 02:08:12;;;;;;;70.53;11.85;;;2.60;99.90;;;;;;5074810;28;20209;-71
2020/12/07 02:10:39;;;;;;;71.50;12.88;;;2.60;99.90;;;;;;5074607;28;20219;-71
2020/12/07 02:13:06;;;;;;;65.57;11.20;;;2.60;99.90;;;;;;5074463;28;20240;-71
2020/12/07 02:15:32;;;;;;;66.60;10.70;;;2.60;99.90;;;;;;5074617;28;20660;-72
2020/12/07 02:17:59;;;;;;;64.78;10.05;;;2.60;99.90;;;;;;5073393;28;20204;-72
2020/12/07 02:20:27;;;;;;;66.10;10.15;;;2.70;99.90;;;;;;5074616;28;20223;-72
2020/12/07 02:22:53;;;;;;;68.47;10.13;;;2.60;99.90;;;;;;5074466;28;20263;-72
2020/12/07 02:25:20;;;;;;;66.50;9.65;;;2.70;99.90;;;;;;5074713;28;20305;-71
2020/12/07 02:27:48;;;;;;;67.95;11.32;;;2.60;99.90;;;;;;5074415;28;20201;-71
2020/12/07 02:30:16;;;;;;;66.10;10.23;;;2.60;99.90;;;;;;5071188;28;20667;-71
2020/12/07 02:32:43;;;;;;;67.03;9.18;;;2.60;99.90;;;;;;5073950;28;20240;-72
2020/12/07 02:35:09;;;;;;;65.93;10.82;;;2.60;99.90;;;;;;5074234;28;20600;-71
2020/12/07 02:37:37;;;;;;;64.88;9.88;;;2.60;99.90;;;;;;5074034;28;20262;-71
2020/12/07 02:40:04;;;;;;;65.03;9.93;;;2.60;99.90;;;;;;5073956;28;20209;-71
2020/12/07 02:42:33;;;;;;;64.03;9.27;;;2.60;99.90;;;;;;5073817;28;20315;-71
2020/12/07 02:45:00;;;;;;;66.10;9.70;;;2.60;99.90;;;;;;5073553;28;20585;-71
2020/12/07 02:47:27;;;;;;;64.50;9.05;;;2.70;99.90;;;;;;5074144;28;20209;-71
2020/12/07 02:49:55;;;;;;;64.22;8.30;;;2.70;99.90;;;;;;5074297;28;20209;-71
2020/12/07 02:52:24;;;;;;;66.57;10.07;;;2.70;99.90;;;;;;5073865;28;20233;-71
2020/12/07 02:54:52;;;;;;;64.72;9.65;;;2.70;99.90;;;;;;5073750;28;20494;-71
2020/12/07 02:57:19;;;;;;;65.35;9.45;;;2.70;99.90;;;;;;5074021;28;20209;-71
2020/12/07 02:59:45;;;;;;;64.35;9.43;;;2.70;99.90;;;;;;5073606;28;20710;-71
2020/12/07 03:02:11;;;;;;;63.53;8.00;;;2.70;99.90;;;;;;5073360;28;20228;-71
2020/12/07 03:04:38;;;;;;;65.15;8.43;;;2.70;99.90;;;;;;5073243;28;20292;-72
2020/12/07 03:07:04;;;;;;;62.25;8.13;;;2.70;99.90;;;;;;5073968;28;20201;-71
2020/12/07 03:09:30;;;;;;;62.08;8.30;;;2.70;99.90;;;;;;5073820;28;20299;-71
2020/12/07 03:11:57;;;;;;;62.08;7.80;;;2.70;99.90;;;;;;5073437;28;20243;-72
2020/12/07 03:14:25;;;;;;;62.50;7.93;;;2.70;99.90;;;;;;5073207;28;20224;-72
2020/12/07 03:16:51;;;;;;;62.78;7.93;;;2.70;99.90;;;;;;5073558;28;20205;-71
2020/12/07 03:19:18;;;;;;;63.38;7.60;;;2.70;99.90;;;;;;5073917;28;20205;-71
2020/12/07 03:21:44;;;;;;;61.78;8.20;;;2.70;99.90;;;;;;5074764;28;20228;-71
2020/12/07 03:24:11;;;;;;;61.58;8.32;;;2.70;99.90;;;;;;5073030;28;20287;-72
2020/12/07 03:26:37;;;;;;;61.15;7.60;;;2.70;99.90;;;;;;5073454;28;20211;-70
2020/12/07 03:29:05;;;;;;;63.85;8.10;;;2.70;99.90;;;;;;5072955;28;20212;-71
2020/12/07 03:31:32;;;;;;;63.80;8.70;;;2.70;99.90;;;;;;5072935;28;20779;-71
2020/12/07 03:33:59;;;;;;;66.20;8.40;;;2.70;99.90;;;;;;5073015;28;20221;-71
2020/12/07 03:36:25;;;;;;;60.80;7.55;;;2.70;99.90;;;;;;5073292;28;20292;-70
2020/12/07 03:38:52;;;;;;;62.72;7.97;;;2.70;99.90;;;;;;5072963;28;20210;-70
2020/12/07 03:41:18;;;;;;;62.78;7.25;;;2.70;99.90;;;;;;5073033;28;20232;-70
2020/12/07 03:43:45;;;;;;;60.67;7.03;;;2.70;99.90;;;;;;5072457;28;20736;-70
2020/12/07 03:46:12;;;;;;;63.45;7.55;;;2.70;99.90;;;;;;5073165;28;20270;-71
2020/12/07 03:48:38;;;;;;;62.88;7.28;;;2.70;99.90;;;;;;5072948;28;20592;-70
2020/12/07 03:51:05;;;;;;;61.95;7.95;;;2.70;99.90;;;;;;5072797;28;20221;-71
2020/12/07 03:53:34;;;;;;;63.03;8.02;;;2.70;99.90;;;;;;5072640;28;20209;-70
2020/12/07 03:56:01;;;;;;;61.20;7.72;;;2.70;99.90;;;;;;5072782;28;20748;-70
2020/12/07 03:58:28;;;;;;;61.47;7.05;;;2.70;99.90;;;;;;5073075;28;20598;-71
2020/12/07 04:00:54;;;;;;;61.80;7.15;;;2.70;99.90;;;;;;5072856;28;20299;-71
2020/12/07 04:03:22;;;;;;;60.33;6.90;;;2.80;99.90;;;;;;5072588;28;20698;-71
2020/12/07 04:05:52;;;;;;;63.47;8.52;;;2.70;99.90;;;;;;5073113;28;20216;-70
2020/12/07 04:08:19;;;;;;;63.03;7.88;;;2.70;99.90;;;;;;5072644;28;20231;-70
2020/12/07 04:10:45;;;;;;;61.05;6.90;;;2.80;99.90;;;;;;5072597;28;20299;-70
2020/12/07 04:13:11;;;;;;;60.95;7.07;;;2.80;99.90;;;;;;5072262;28;20213;-70
2020/12/07 04:15:38;;;;;;;61.67;8.10;;;2.80;99.90;;;;;;5073139;28;20229;-70
2020/12/07 04:18:04;;;;;;;62.17;7.35;;;2.80;99.90;;;;;;5072663;28;20326;-70
2020/12/07 04:20:31;;;;;;;61.78;6.50;;;2.80;99.90;;;;;;5072369;28;20559;-70
2020/12/07 04:22:58;;;;;;;59.50;6.43;;;2.90;99.90;;;;;;5072310;28;20220;-70
2020/12/07 04:25:25;;;;;;;61.25;7.10;;;2.80;99.90;;;;;;5072536;28;20205;-70
2020/12/07 04:27:51;;;;;;;61.33;6.97;;;2.80;99.90;;;;;;5072346;28;20204;-70
2020/12/07 04:30:18;;;;;;;60.22;7.07;;;2.90;99.90;;;;;;5072771;28;20209;-71
2020/12/07 04:32:44;;;;;;;61.58;6.70;;;2.80;99.90;;;;;;5072956;28;20263;-70
2020/12/07 04:35:10;;;;;;;60.63;6.32;;;2.90;99.90;;;;;;5071960;28;20315;-70
2020/12/07 04:37:38;;;;;;;60.38;6.65;;;2.90;99.90;;;;;;5072530;28;20205;-71
2020/12/07 04:40:04;;;;;;;60.85;6.22;;;2.90;99.90;;;;;;5072395;28;20277;-70
2020/12/07 04:42:31;;;;;;;64.25;6.63;;;2.90;99.90;;;;;;5071769;28;20224;-70
2020/12/07 04:44:58;;;;;;;63.78;6.78;;;2.90;99.90;;;;;;5072445;28;20208;-70
2020/12/07 04:47:25;;;;;;;60.60;6.80;;;2.90;99.90;;;;;;5072231;28;20240;-70
2020/12/07 04:49:53;;;;;;;61.88;6.10;;;2.90;99.90;;;;;;5072366;28;20304;-70
2020/12/07 04:52:20;;;;;;;64.63;6.55;;;3.00;99.90;;;;;;5071587;28;20237;-70
2020/12/07 04:54:49;;;;;;;65.05;6.80;;;2.90;99.90;;;;;;5071576;28;20229;-70
2020/12/07 04:57:16;;;;;;;60.97;6.40;;;3.00;99.90;;;;;;5072283;28;20650;-70
2020/12/07 04:59:42;;;;;;;61.22;7.13;;;2.90;99.90;;;;;;5071946;28;20690;-70
2020/12/07 05:02:09;;;;;;;60.85;6.63;;;2.90;99.90;;;;;;5071945;28;20220;-70
2020/12/07 05:04:36;;;;;;;60.03;6.45;;;3.00;99.90;;;;;;5071528;28;20213;-70
2020/12/07 05:07:03;;;;;;;62.80;6.68;;;3.00;99.90;;;;;;5071710;28;20346;-70
2020/12/07 05:09:30;;;;;;;60.92;7.30;;;3.00;99.90;;;;;;5071908;28;20291;-70
2020/12/07 05:12:00;;;;;;;60.15;6.50;;;3.00;99.90;;;;;;5071901;28;20232;-70
2020/12/07 05:14:26;;;;;;;61.50;6.25;;;3.00;99.90;;;;;;5071426;28;20221;-70
2020/12/07 05:16:52;;;;;;;61.63;6.35;;;3.00;99.90;;;;;;5071842;28;20667;-70
2020/12/07 05:19:21;;;;;;;64.38;7.75;;;3.00;99.90;;;;;;5072283;28;20209;-71
2020/12/07 05:21:47;;;;;;;63.08;7.57;;;3.00;99.90;;;;;;5073447;28;20231;-71
2020/12/07 05:24:14;;;;;;;64.15;7.70;;;3.00;99.90;;;;;;5071554;28;20572;-71
2020/12/07 05:26:42;;;;;;;60.28;6.45;;;3.00;99.90;;;;;;5071896;28;20614;-71
2020/12/07 05:29:13;;;;;;;61.95;7.80;;;3.00;99.90;;;;;;5071457;28;20209;-70
2020/12/07 05:31:39;;;;;;;61.30;6.95;;;3.00;99.90;;;;;;5071820;28;20271;-70
2020/12/07 05:34:06;;;;;;;62.45;7.35;;;3.00;99.90;;;;;;5070944;28;20248;-70
2020/12/07 05:36:32;;;;;;;61.25;7.10;;;3.00;99.90;;;;;;5071687;28;20209;-70
2020/12/07 05:38:58;;;;;;;64.05;7.47;;;3.00;99.90;;;;;;5071440;28;20293;-70
2020/12/07 05:41:26;;;;;;;63.45;8.38;;;3.00;99.90;;;;;;5071206;28;20324;-70
2020/12/07 05:43:53;;;;;;;62.35;7.68;;;3.00;99.90;;;;;;5071267;28;20268;-70
2020/12/07 05:46:25;;;;;;;63.17;7.03;;;3.00;99.90;;;;;;5071300;28;20208;-71
2020/12/07 05:48:53;;;;;;;62.00;7.82;;;3.00;99.90;;;;;;5071701;28;20623;-71
2020/12/07 05:51:23;;;;;;;64.45;7.70;;;3.00;99.90;;;;;;5071314;28;20237;-71
2020/12/07 05:53:50;;;;;;;62.33;7.15;;;2.90;99.90;;;;;;5074754;28;20231;-71
2020/12/07 05:56:17;;;;;;;60.85;7.20;;;2.90;99.90;;;;;;5074823;28;20227;-71
2020/12/07 05:58:56;;;;;;;62.60;6.93;;;2.90;99.90;;;;;;5075210;28;20252;-71
2020/12/07 06:01:25;;;;;;;62.05;7.00;;;2.90;99.90;;;;;;5075339;28;20749;-71
2020/12/07 06:03:52;;;;;;;60.88;6.53;;;2.90;99.90;;;;;;5074923;28;20296;-71
2020/12/07 06:06:29;;;;;;;63.08;7.97;;;2.90;99.90;;;;;;5075235;28;20296;-71
2020/12/07 06:08:56;;;;;;;61.60;6.90;;;2.90;99.90;;;;;;5074996;28;20201;-71
2020/12/07 06:11:24;;;;;;;65.72;8.00;;;2.80;99.90;;;;;;5074340;28;20307;-71
2020/12/07 06:13:52;;;;;;;63.08;7.70;;;2.80;99.90;;;;;;5074693;28;20229;-71
2020/12/07 06:16:18;;;;;;;64.70;8.20;;;2.80;99.90;;;;;;5074845;28;20296;-71
2020/12/07 06:18:45;;;;;;;62.22;7.95;;;2.80;99.90;;;;;;5074916;28;20639;-71
2020/12/07 06:21:16;;;;;;;63.40;7.88;;;2.80;99.90;;;;;;5074549;28;20260;-71
2020/12/07 06:23:43;;;;;;;62.70;8.35;;;2.70;99.90;;;;;;5074262;28;20262;-71
2020/12/07 06:26:12;;;;;;;64.53;8.35;;;2.70;99.90;;;;;;5074825;28;20621;-71
2020/12/07 06:28:39;;;;;;;63.58;8.55;;;2.70;99.90;;;;;;5074618;28;20216;-71
2020/12/07 06:31:10;;;;;;;63.15;8.10;;;2.70;99.90;;;;;;5074630;28;20224;-71
2020/12/07 06:33:46;;;;;;;64.88;8.60;;;2.60;99.90;;;;;;5074116;28;20291;-71
2020/12/07 06:36:26;;;;;;;66.50;9.10;;;2.60;99.90;;;;;;5074596;28;20204;-71
2020/12/07 06:38:55;;;;;;;65.13;8.95;;;2.60;99.10;;;;;;5074429;28;20200;-71
2020/12/07 06:41:36;;;;;;;64.30;8.20;;;2.60;99.30;;;;;;5074271;28;20260;-71
2020/12/07 06:44:05;;;;;;;63.55;8.13;;;2.60;98.50;;;;;;5074172;28;20201;-71
2020/12/07 06:46:56;;;;;;;62.60;7.30;;;2.60;99.90;;;;;;5074026;28;20215;-71
2020/12/07 06:49:29;;;;;;;66.20;8.52;;;2.60;99.90;;;;;;5074281;28;20220;-71
2020/12/07 06:52:03;;;;;;;63.10;8.18;;;2.70;99.90;;;;;;5094881;22;20232;-79
2020/12/07 06:57:42;;;;;;;66.68;9.40;;;2.70;99.90;;;;;;5036367;28;20534;-79
2020/12/07 07:00:14;;;;;;;63.22;8.35;;;2.80;99.90;;;;;;5034882;28;20206;-77
2020/12/07 07:02:43;;;;;;;68.97;8.93;;;2.80;99.90;;;;;;5044963;28;20232;-78
2020/12/07 07:05:13;;;;;;;67.95;8.88;;;2.80;98.50;;;;;;5054319;28;20201;-77
2020/12/07 07:07:41;;;;;;;64.43;8.57;;;2.80;97.90;;;;;;5053390;28;20212;-77
2020/12/07 07:10:08;;;;;;;64.75;7.95;;;2.80;97.50;;;;;;5053370;28;20259;-79
2020/12/07 07:12:35;;;;;;;64.55;8.73;;;2.90;97.90;;;;;;5053068;28;20275;-78
2020/12/07 07:15:02;;;;;;;64.68;9.15;;;2.90;97.50;;;;;;5052835;28;20571;-78
2020/12/07 07:17:30;;;;;;;69.10;9.93;;;2.90;97.90;;;;;;5052941;28;20297;-77
2020/12/07 07:19:57;;;;;;;68.75;10.05;;;2.90;97.50;;;;;;5053822;28;20640;-77
2020/12/07 07:22:25;;;;;;;71.05;10.38;;;3.00;98.00;;;;;;5052671;28;20229;-77
2020/12/07 07:25:06;;;;;;;73.32;10.70;;;3.00;98.70;;;;;;5052458;28;20254;-77
2020/12/07 07:30:18;;;;;;;64.75;8.90;;;3.10;97.10;;;;;;5052370;28;20259;-77
2020/12/07 07:32:46;;;;;;;66.55;10.57;;;3.10;97.50;;;;;;5052624;28;20228;-78
2020/12/07 07:35:16;;;;;;;67.22;10.10;;;3.10;97.30;;;;;;5052453;28;20264;-77
2020/12/07 07:37:43;;;;;;;69.40;9.45;;;3.20;97.90;;;;;;5053314;28;20374;-77
2020/12/07 07:40:12;;;;;;;71.03;10.63;;;3.20;97.10;;;;;;5052645;28;20296;-76
2020/12/07 07:42:42;;;;;;;66.82;9.30;;;3.30;97.30;;;;;;5053017;28;20286;-77
2020/12/07 07:45:08;;;;;;;69.10;10.55;;;3.30;96.90;;;;;;5052759;28;20198;-78
2020/12/07 07:47:42;;;;;;;68.05;9.77;;;3.30;97.50;;;;;;5053670;28;20611;-78
2020/12/07 08:15:35;;;;;;;77.13;14.60;;;3.90;92.00;;;;;;5051218;28;20600;-77
2020/12/07 08:18:02;;;;;;;71.63;11.80;;;4.00;90.70;;;;;;5051973;28;20205;-76
2020/12/07 08:20:31;;;;;;;70.35;10.77;;;4.00;88.90;;;;;;5069748;28;20197;-77
2020/12/07 08:22:59;;;;;;;68.65;11.85;;;4.10;87.30;;;;;;5068924;28;20654;-79
2020/12/07 08:25:47;;;;;;;65.85;11.23;;;4.20;84.60;;;;;;5051486;28;20279;-77
2020/12/07 08:28:18;;;;;;;67.93;10.40;;;4.20;79.00;;;;;;5052266;28;20202;-77
2020/12/07 08:31:05;;;;;;;68.35;12.63;;;4.30;77.90;;;;;;5059060;28;20215;-79
2020/12/07 08:33:33;;;;;;;71.28;12.20;;;4.40;75.60;;;;;;5071960;28;20301;-74
2020/12/07 08:36:01;;;;;;;65.25;10.40;;;4.40;74.10;;;;;;5071322;28;20229;-76
2020/12/07 08:38:29;;;;;;;67.53;11.88;;;4.50;72.90;;;;;;5071908;28;20205;-76
2020/12/07 08:41:11;;;;;;;69.65;11.55;;;4.50;68.80;;;;;;5071706;28;20685;-76
2020/12/07 08:43:39;;;;;;;82.20;17.88;;;4.60;65.70;;;;;;5071217;28;20311;-77
2020/12/07 08:46:07;;;;;;;82.65;18.67;;;4.60;61.60;;;;;;5071836;28;20243;-76
2020/12/07 08:48:34;;;;;;;73.53;12.90;;;4.70;60.40;;;;;;5071795;28;20683;-77
2020/12/07 08:51:01;;;;;;;70.05;12.18;;;4.80;59.20;;;;;;5071697;28;20686;-75
2020/12/07 08:53:27;;;;;;;67.93;12.18;;;4.90;49.20;;;;;;5071466;28;20235;-74
2020/12/07 08:55:53;;;;;;;73.72;11.80;;;4.90;44.50;;;;;;5071105;28;20231;-74
2020/12/07 08:58:20;;;;;;;66.93;11.18;;;5.00;44.40;;;;;;5071669;28;20217;-76
2020/12/07 09:00:47;;;;;;;66.35;10.23;;;5.10;21.70;;;;;;5077291;28;20276;-77
2020/12/07 09:03:14;;;;;;;66.65;9.15;;;5.10;22.30;;;;;;5093378;28;20272;-77
2020/12/07 09:05:40;;;;;;;64.13;9.30;;;5.20;17.00;;;;;;5095524;28;20232;-78
2020/12/07 09:08:07;;;;;;;64.70;10.00;;;5.20;13.70;;;;;;5095986;28;20674;-78
2020/12/07 09:10:34;;;;;;;65.43;9.57;;;5.30;13.50;;;;;;5095883;28;20209;-77
2020/12/07 09:13:00;;;;;;;63.22;9.20;;;5.30;19.40;;;;;;5095755;28;20215;-77
2020/12/07 09:15:28;;;;;;;65.85;9.75;;;5.40;8.20;;;;;;5095687;28;20236;-77
2020/12/07 09:17:55;;;;;;;63.03;9.15;;;5.50;1.00;;;;;;5095860;28;20243;-77
2020/12/07 09:20:21;;;;;;;63.38;9.25;;;5.50;1.00;;;;;;5095717;28;20257;-77
2020/12/07 09:22:47;;;;;;;65.47;8.50;;;5.50;1.00;;;;;;5091568;28;20261;-77
2020/12/07 09:25:14;;;;;;;62.28;7.82;;;5.50;1.00;;;;;;5083291;28;20205;-76
2020/12/07 09:27:40;;;;;;;63.05;9.07;;;5.60;1.00;;;;;;5091055;28;20584;-76
2020/12/07 09:30:07;;;;;;;64.85;8.82;;;5.60;1.00;;;;;;5074996;28;20675;-76
2020/12/07 09:32:34;;;;;;;64.00;8.73;;;5.70;1.00;;;;;;5075042;28;20225;-77
2020/12/07 09:35:01;;;;;;;62.00;8.75;;;5.80;1.00;;;;;;5074666;28;20779;-77
2020/12/07 09:37:28;;;;;;;61.30;8.40;;;6.10;3.80;;;;;;5074903;28;20212;-76
2020/12/07 09:39:54;;;;;;;66.03;8.77;;;6.30;5.60;;;;;;5074625;28;20304;-75
2020/12/07 09:42:21;;;;;;;62.83;7.95;;;6.50;1.00;;;;;;5074860;28;20336;-76
2020/12/07 09:44:47;;;;;;;61.08;7.07;;;6.70;1.00;;;;;;5074644;28;20661;-77
2020/12/07 09:47:14;;;;;;;63.10;7.10;;;6.70;1.00;;;;;;5074820;28;20300;-77
2020/12/07 09:49:41;;;;;;;59.20;6.03;;;6.70;1.00;;;;;;5074556;28;20669;-77
2020/12/07 09:52:08;;;;;;;59.38;6.80;;;6.80;1.00;;;;;;5074309;28;20325;-76
2020/12/07 09:54:37;;;;;;;59.70;6.00;;;7.10;1.00;;;;;;5074656;28;20225;-76
2020/12/07 09:57:04;;;;;;;60.40;6.90;;;7.40;1.00;;;;;;5074444;28;20453;-76
2020/12/07 09:59:30;;;;;;;59.40;6.40;;;7.60;1.00;;;;;;5074517;28;20956;-76
2020/12/07 10:01:56;;;;;;;60.50;6.70;;;8.00;1.00;;;;;;5074228;28;20532;-76
2020/12/07 10:04:23;;;;;;;59.90;6.50;;;8.70;1.00;;;;;;5074132;28;20443;-76
2020/12/07 10:06:50;;;;;;;61.30;6.70;;;9.20;1.00;;;;;;5074056;28;20449;-75
2020/12/07 10:09:16;;;;;;;60.30;6.77;;;9.90;1.00;;;;;;5074203;28;20450;-74
2020/12/07 10:11:43;;;;;;;60.73;6.27;;;10.20;1.00;;;;;;5074100;28;20528;-74
2020/12/07 10:14:09;;;;;;;60.43;5.90;;;10.10;1.00;;;;;;5073895;28;20801;-75
2020/12/07 10:16:36;;;;;;;59.27;5.80;;;9.60;1.00;;;;;;5074168;28;20438;-75
2020/12/07 10:19:02;;;;;;;60.20;5.97;;;9.10;1.00;;;;;;5074034;28;20445;-76
2020/12/07 10:21:28;;;;;;;62.07;7.00;;;8.80;1.00;;;;;;5073836;28;20441;-75
2020/12/07 10:23:56;;;;;;;61.17;6.70;;;8.50;1.00;;;;;;5073518;28;20501;-75
2020/12/07 10:26:24;;;;;;;61.30;7.40;;;8.20;1.00;;;;;;5074197;28;20446;-76
2020/12/07 10:28:50;;;;;;;60.93;7.00;;;8.10;1.00;;;;;;5074036;28;20540;-75
2020/12/07 10:31:19;;;;;;;61.20;8.20;;;8.10;1.00;;;;;;5073826;28;20539;-76
2020/12/07 10:33:45;;;;;;;64.03;6.63;;;8.90;1.00;;;;;;5073478;28;20545;-75
2020/12/07 10:36:12;;;;;;;65.83;7.60;;;10.00;1.00;;;;;;5073718;28;20485;-75
2020/12/07 10:38:38;;;;;;;60.40;7.10;;;10.80;1.00;;;;;;5072945;28;20880;-76
2020/12/07 10:41:05;;;;;;;59.13;6.10;;;11.10;1.00;;;;;;5073871;28;20447;-77
2020/12/07 10:43:32;;;;;;;59.27;6.10;;;11.00;1.00;;;;;;5073488;28;20475;-77
2020/12/07 10:45:58;;;;;;;59.20;5.53;;;10.90;1.00;;;;;;5073374;28;20439;-77
2020/12/07 10:48:25;;;;;;;58.57;5.50;;;11.30;1.00;;;;;;5073421;28;20452;-77
2020/12/07 10:50:51;;;;;;;60.47;7.07;;;11.40;1.00;;;;;;5073665;28;20451;-77
2020/12/07 10:53:17;;;;;;;60.00;7.10;;;12.20;1.00;;;;;;5073319;28;20482;-77
2020/12/07 10:55:44;;;;;;;58.57;5.87;;;13.60;1.00;;;;;;5073001;28;20483;-77
2020/12/07 10:58:11;;;;;;;58.60;5.63;;;14.60;1.00;;;;;;5073530;28;20447;-77
2020/12/07 11:00:38;;;;;;;58.20;5.03;;;15.20;1.00;;;;;;5073309;28;20855;-77
2020/12/07 11:03:04;;;;;;;58.13;5.17;;;15.30;1.00;;;;;;5072935;28;20474;-77
2020/12/07 11:05:31;;;;;;;61.80;5.33;;;15.80;1.00;;;;;;5073166;28;20445;-77
2020/12/07 11:07:58;;;;;;;58.60;5.00;;;16.30;1.00;;;;;;5073091;28;20449;-76
2020/12/07 11:10:24;;;;;;;61.57;5.10;;;16.10;1.00;;;;;;5073318;28;20459;-76
2020/12/07 11:12:57;;;;;;;58.70;5.57;;;15.90;1.00;;;;;;5072811;28;20551;-76
2020/12/07 11:15:25;;;;;;;58.50;4.67;;;16.00;1.00;;;;;;5072740;28;20480;-76
2020/12/07 11:17:51;;;;;;;57.70;4.70;;;15.90;1.00;;;;;;5072786;28;20471;-76
2020/12/07 11:20:18;;;;;;;58.47;5.47;;;15.30;1.00;;;;;;5072922;28;20455;-74
2020/12/07 11:22:44;;;;;;;59.40;5.10;;;15.40;1.00;;;;;;5072777;28;20460;-74
2020/12/07 11:25:10;;;;;;;58.80;5.47;;;15.80;1.00;;;;;;5072683;28;20508;-74
2020/12/07 11:27:36;;;;;;;58.07;5.20;;;16.50;1.00;;;;;;5074452;28;20476;-73
2020/12/07 11:30:03;;;;;;;58.20;4.40;;;16.80;1.00;;;;;;5073173;28;20524;-74
2020/12/07 11:32:31;;;;;;;57.70;4.33;;;16.80;1.00;;;;;;5072458;28;20466;-73
2020/12/07 11:34:57;;;;;;;57.83;4.60;;;17.10;1.00;;;;;;5072352;28;20477;-74
2020/12/07 11:37:23;;;;;;;57.40;4.20;;;16.50;1.00;;;;;;5072613;28;20445;-73
2020/12/07 11:39:53;;;;;;;58.07;4.20;;;15.00;1.00;;;;;;5072375;28;20469;-73
2020/12/07 11:42:39;;;;;;;62.13;4.80;;;13.20;1.00;;;;;;5072416;28;20463;-73
2020/12/07 11:45:05;;;;;;;60.07;5.60;;;11.50;1.00;;;;;;5072325;28;20450;-73
2020/12/07 11:47:32;;;;;;;58.57;4.47;;;10.10;1.00;;;;;;5072499;28;20525;-73
2020/12/07 11:49:59;;;;;;;58.70;4.70;;;9.20;1.00;;;;;;5071908;28;20469;-73
2020/12/07 11:52:25;;;;;;;59.73;5.00;;;8.60;1.00;;;;;;5072014;28;20480;-73
2020/12/07 11:54:51;;;;;;;58.80;5.17;;;8.20;1.00;;;;;;5071946;28;20568;-73
2020/12/07 11:57:18;;;;;;;58.50;4.67;;;7.90;1.00;;;;;;5072096;28;20532;-73
2020/12/07 11:59:44;;;;;;;61.33;5.00;;;7.70;1.00;;;;;;5072290;28;20540;-73
2020/12/07 12:02:10;;;;;;;58.70;4.90;;;7.60;1.00;;;;;;5072049;28;20543;-73
2020/12/07 12:04:37;;;;;;;58.90;5.00;;;7.60;1.00;;;;;;5071867;28;20502;-73
2020/12/07 12:07:04;;;;;;;58.67;5.10;;;7.40;1.00;;;;;;5072405;28;20440;-74
2020/12/07 12:09:30;;;;;;;59.03;5.53;;;7.20;1.00;;;;;;5071975;28;20207;-74
2020/12/07 12:11:57;;;;;;;60.90;5.87;;;7.00;1.00;;;;;;5071341;28;20514;-73
2020/12/07 12:14:23;;;;;;;62.30;6.32;;;6.90;1.00;;;;;;5071751;28;20439;-72
2020/12/07 12:16:50;;;;;;;59.28;6.07;;;6.90;1.00;;;;;;5071730;28;20297;-73
2020/12/07 12:19:16;;;;;;;60.40;5.90;;;6.90;1.00;;;;;;5071783;28;20213;-73
2020/12/07 12:21:43;;;;;;;59.78;5.65;;;6.90;1.00;;;;;;5071630;28;20615;-73
2020/12/07 12:24:09;;;;;;;59.10;5.65;;;6.90;1.00;;;;;;5071283;28;20207;-73
2020/12/07 12:26:36;;;;;;;63.25;5.75;;;7.00;1.00;;;;;;5071443;28;20665;-73
2020/12/07 12:29:04;;;;;;;60.13;5.35;;;7.10;1.00;;;;;;5071735;28;20240;-73
2020/12/07 12:31:31;;;;;;;57.97;5.22;;;7.00;1.00;;;;;;5071862;28;20472;-73
2020/12/07 12:33:57;;;;;;;58.67;5.03;;;6.80;1.00;;;;;;5071302;28;20791;-72
2020/12/07 12:36:25;;;;;;;58.85;5.65;;;6.70;1.00;;;;;;5071246;28;20236;-73
2020/12/07 12:38:53;;;;;;;59.17;5.05;;;6.60;1.00;;;;;;5071555;28;20296;-73
2020/12/07 12:41:20;;;;;;;60.38;5.80;;;6.40;1.00;;;;;;5071799;28;20248;-73
2020/12/07 12:43:47;;;;;;;59.58;5.43;;;6.30;1.00;;;;;;5071455;28;20270;-72
2020/12/07 12:46:14;;;;;;;58.45;5.40;;;6.20;1.00;;;;;;5071301;28;20207;-73
2020/12/07 12:48:41;;;;;;;58.95;5.10;;;6.20;1.00;;;;;;5071469;28;20640;-73
2020/12/07 12:51:09;;;;;;;58.72;5.28;;;6.10;1.00;;;;;;5071501;28;20490;-73
2020/12/07 12:53:36;;;;;;;59.40;5.60;;;6.10;1.00;;;;;;5073587;22;20320;-69
2020/12/07 12:56:06;;;;;;;58.95;5.35;;;6.10;1.00;;;;;;5031204;28;20234;-70
2020/12/07 12:58:33;;;;;;;58.58;5.38;;;6.00;1.00;;;;;;5031648;28;20210;-71
2020/12/07 13:00:59;;;;;;;58.97;5.72;;;6.00;1.00;;;;;;5031223;28;20264;-70
2020/12/07 13:03:25;;;;;;;58.95;5.07;;;6.00;1.00;;;;;;5030946;28;20317;-72
2020/12/07 13:05:53;;;;;;;59.78;5.05;;;5.90;1.00;;;;;;5030908;28;20296;-71
2020/12/07 13:08:19;;;;;;;58.63;5.20;;;5.90;1.00;;;;;;5031405;28;20217;-70
2020/12/07 13:10:48;;;;;;;58.08;4.88;;;6.00;1.00;;;;;;5031144;28;20298;-72
2020/12/07 13:13:16;;;;;;;58.97;5.80;;;6.20;1.00;;;;;;5031087;28;20231;-71
2020/12/07 13:15:50;;;;;;;58.30;5.57;;;6.40;1.00;;;;;;5030732;28;20710;-71
2020/12/07 13:18:16;;;;;;;59.10;5.88;;;6.60;1.00;;;;;;5031221;28;20858;-70